createdAt,value
2022-08-31T00:00:19.316Z,57.04
2022-08-31T00:05:40.436Z,57.83
2022-08-31T00:10:47.927Z,59.18
2022-08-31T00:15:52.631Z,60.11
2022-08-31T00:20:55.598Z,61.04
2022-08-31T00:25:59.853Z,68.65
2022-08-31T00:31:03.051Z,61.34
2022-08-31T00:36:09.301Z,53.52
2022-08-31T00:41:12.251Z,54.13
2022-08-31T00:46:20.027Z,55.55
2022-08-31T00:51:25.369Z,56.78
2022-08-31T00:56:31.558Z,57.80
2022-08-31T01:01:34.981Z,58.81
2022-08-31T01:06:38.615Z,59.95
2022-08-31T01:11:42.510Z,60.91
2022-08-31T01:16:51.259Z,68.25
2022-08-31T01:22:19.499Z,60.72
2022-08-31T01:27:27.722Z,53.30
2022-08-31T01:32:30.702Z,54.24
2022-08-31T01:37:33.959Z,55.66
2022-08-31T01:42:39.414Z,56.81
2022-08-31T01:47:44.865Z,57.92
2022-08-31T01:52:47.823Z,59.30
2022-08-31T01:57:51.006Z,60.08
2022-08-31T02:03:20.717Z,60.55
2022-08-31T02:08:23.673Z,68.26
2022-08-31T02:13:26.883Z,60.86
2022-08-31T02:18:29.748Z,53.06
2022-08-31T02:23:32.623Z,53.80
2022-08-31T02:28:36.200Z,55.44
2022-08-31T02:33:39.739Z,56.55
2022-08-31T02:38:42.973Z,57.66
2022-08-31T02:43:46.125Z,58.86
2022-08-31T02:48:49.680Z,59.90
2022-08-31T02:53:54.220Z,67.00
2022-08-31T02:58:57.541Z,60.84
2022-08-31T03:04:01.026Z,53.28
2022-08-31T03:09:04.911Z,53.91
2022-08-31T03:14:08.067Z,55.18
2022-08-31T03:19:11.098Z,56.61
2022-08-31T03:24:14.744Z,58.08
2022-08-31T03:29:18.158Z,59.86
2022-08-31T03:34:33.036Z,67.35
2022-08-31T03:39:36.224Z,59.93
2022-08-31T03:44:39.673Z,53.65
2022-08-31T03:49:45.029Z,54.80
2022-08-31T03:54:56.130Z,56.31
2022-08-31T04:00:00.669Z,57.49
2022-08-31T04:05:21.451Z,58.59
2022-08-31T04:10:44.694Z,59.78
2022-08-31T04:16:00.593Z,68.09
2022-08-31T04:21:43.204Z,59.25
2022-08-31T04:26:51.800Z,54.02
2022-08-31T04:31:54.885Z,55.81
2022-08-31T04:36:59.227Z,57.26
2022-08-31T04:42:05.855Z,58.23
2022-08-31T04:47:10.128Z,59.09
2022-08-31T04:52:13.362Z,58.48
2022-08-31T04:57:16.891Z,67.19
2022-08-31T05:02:19.933Z,63.65
2022-08-31T05:07:29.052Z,52.64
2022-08-31T05:12:33.995Z,52.64
2022-08-31T05:17:37.003Z,56.04
2022-08-31T05:22:40.322Z,56.47
2022-08-31T05:27:43.742Z,57.88
2022-08-31T05:32:48.386Z,57.28
2022-08-31T05:37:51.818Z,57.91
2022-08-31T05:42:59.542Z,58.89
2022-08-31T05:48:02.947Z,61.29
2022-08-31T05:53:07.713Z,67.25
2022-08-31T05:58:10.636Z,56.90
2022-08-31T06:03:13.497Z,56.34
2022-08-31T06:08:17.636Z,57.97
2022-08-31T06:13:26.579Z,57.32
2022-08-31T06:18:31.229Z,57.75
2022-08-31T06:23:34.288Z,59.87
2022-08-31T06:28:50.140Z,60.90
2022-08-31T06:33:56.041Z,61.53
2022-08-31T06:39:17.850Z,60.58
2022-08-31T06:44:52.934Z,60.48
2022-08-31T06:49:59.089Z,60.84
2022-08-31T06:55:02.418Z,66.56
2022-08-31T07:00:24.032Z,56.82
2022-08-31T07:05:45.617Z,55.65
2022-08-31T07:10:49.086Z,56.80
2022-08-31T07:15:52.414Z,57.71
2022-08-31T07:20:55.987Z,58.61
2022-08-31T07:26:11.413Z,59.34
2022-08-31T07:31:17.850Z,59.76
2022-08-31T07:36:24.858Z,60.57
2022-08-31T07:41:58.893Z,61.22
2022-08-31T07:47:03.844Z,67.75
2022-08-31T07:52:07.056Z,58.41
2022-08-31T07:57:30.377Z,55.60
2022-08-31T08:02:39.970Z,55.84
2022-08-31T08:07:43.058Z,56.22
2022-08-31T08:13:05.904Z,56.70
2022-08-31T08:18:21.601Z,57.56
2022-08-31T08:23:29.126Z,58.64
2022-08-31T08:29:06.317Z,60.40
2022-08-31T08:34:13.490Z,61.22
2022-08-31T08:39:18.140Z,61.31
2022-08-31T08:44:33.629Z,61.05
2022-08-31T08:49:42.185Z,60.60
2022-08-31T08:54:48.327Z,60.38
2022-08-31T08:59:56.244Z,59.64
2022-08-31T09:05:25.243Z,59.58
2022-08-31T09:11:08.981Z,58.95
2022-08-31T09:16:22.420Z,60.30
2022-08-31T09:21:43.364Z,60.79
2022-08-31T09:26:54.591Z,60.45
2022-08-31T09:32:16.762Z,59.56
2022-08-31T09:37:25.513Z,59.35
2022-08-31T09:42:33.879Z,60.05
2022-08-31T09:47:52.506Z,60.59
2022-08-31T09:53:31.196Z,60.30
2022-08-31T09:58:34.247Z,60.07
2022-08-31T10:03:37.747Z,59.92
2022-08-31T10:08:53.708Z,59.59
2022-08-31T10:14:07.768Z,59.66
2022-08-31T10:19:18.252Z,59.63
2022-08-31T10:24:38.448Z,59.64
2022-08-31T10:29:54.910Z,59.65
2022-08-31T10:35:07.304Z,59.47
2022-08-31T10:40:24.723Z,59.27
2022-08-31T10:45:30.000Z,58.95
2022-08-31T10:50:45.265Z,58.61
2022-08-31T10:56:02.499Z,58.40
2022-08-31T11:01:52.072Z,58.66
2022-08-31T11:07:14.170Z,58.55
2022-08-31T11:12:23.729Z,57.36
2022-08-31T11:17:50.020Z,57.48
2022-08-31T11:23:27.017Z,57.32
2022-08-31T11:28:38.914Z,57.30
2022-08-31T11:34:14.138Z,56.20
2022-08-31T11:39:13.570Z,54.85
2022-08-31T11:44:29.710Z,55.35
2022-08-31T11:49:39.968Z,54.74
2022-08-31T11:54:50.450Z,54.26
2022-08-31T11:59:54.671Z,53.70
2022-08-31T12:05:03.080Z,53.75
2022-08-31T12:10:32.591Z,52.47
2022-08-31T12:16:06.941Z,51.50
2022-08-31T12:21:50.373Z,50.23
2022-08-31T12:27:04.866Z,50.50
2022-08-31T12:32:29.330Z,49.61
2022-08-31T12:37:34.961Z,50.87
2022-08-31T12:42:43.691Z,50.38
2022-08-31T12:48:12.508Z,50.60
2022-08-31T12:53:24.380Z,49.82
2022-08-31T12:58:38.230Z,50.67
2022-08-31T13:03:54.064Z,49.70
2022-08-31T13:08:59.194Z,50.33
2022-08-31T13:14:18.773Z,50.52
2022-08-31T13:19:24.154Z,50.30
2022-08-31T13:24:33.551Z,49.45
2022-08-31T13:29:45.413Z,48.20
2022-08-31T13:34:49.391Z,48.10
2022-08-31T13:39:53.103Z,47.75
2022-08-31T13:45:02.616Z,48.28
2022-08-31T13:50:17.197Z,48.42
2022-08-31T13:55:33.545Z,48.80
2022-08-31T14:00:42.625Z,48.38
2022-08-31T14:05:45.522Z,48.12
2022-08-31T14:10:49.766Z,47.42
2022-08-31T14:15:56.599Z,47.64
2022-08-31T14:21:20.142Z,47.85
2022-08-31T14:26:28.155Z,47.58
2022-08-31T14:31:43.693Z,47.03
2022-08-31T14:36:53.351Z,47.50
2022-08-31T14:42:00.998Z,47.52
2022-08-31T14:47:04.372Z,47.34
2022-08-31T14:52:08.211Z,47.53
2022-08-31T14:57:15.609Z,47.41
2022-08-31T15:02:21.742Z,47.25
2022-08-31T15:07:24.715Z,46.66
2022-08-31T15:12:28.472Z,46.71
2022-08-31T15:17:36.270Z,47.25
2022-08-31T15:22:41.112Z,47.29
2022-08-31T15:27:44.697Z,46.70
2022-08-31T15:32:48.971Z,46.63
2022-08-31T15:37:59.151Z,46.94
2022-08-31T15:43:03.942Z,46.11
2022-08-31T15:48:25.736Z,46.58
2022-08-31T15:53:30.688Z,46.25
2022-08-31T15:58:35.280Z,44.58
2022-08-31T16:03:40.757Z,45.23
2022-08-31T16:08:43.888Z,45.00
2022-08-31T16:13:52.293Z,45.20
2022-08-31T16:18:59.828Z,45.50
2022-08-31T16:24:07.364Z,45.17
2022-08-31T16:29:13.739Z,45.86
2022-08-31T16:34:18.776Z,45.89
2022-08-31T16:39:25.295Z,45.61
2022-08-31T16:44:36.403Z,45.74
2022-08-31T16:49:43.640Z,45.53
2022-08-31T16:54:51.118Z,45.97
2022-08-31T16:59:58.536Z,46.09
2022-08-31T17:05:04.834Z,46.08
2022-08-31T17:10:08.633Z,46.16
2022-08-31T17:15:13.993Z,46.39
2022-08-31T17:20:17.085Z,46.90
2022-08-31T17:25:20.241Z,47.14
2022-08-31T17:30:23.356Z,47.34
2022-08-31T17:35:26.984Z,47.67
2022-08-31T17:40:30.542Z,48.06
2022-08-31T17:45:35.996Z,48.05
2022-08-31T17:50:44.151Z,48.28
2022-08-31T17:55:56.923Z,48.31
2022-08-31T18:01:00.499Z,48.45
2022-08-31T18:06:03.659Z,50.24
2022-08-31T18:11:07.596Z,50.14
2022-08-31T18:16:14.013Z,49.62
2022-08-31T18:21:22.387Z,49.56
2022-08-31T18:26:30.871Z,49.61
2022-08-31T18:31:34.469Z,49.80
2022-08-31T18:36:38.998Z,50.10
2022-08-31T18:42:00.707Z,50.73
2022-08-31T18:47:07.596Z,50.99
2022-08-31T18:52:19.659Z,51.58
2022-08-31T18:57:26.626Z,51.54
2022-08-31T19:02:30.266Z,51.77
2022-08-31T19:07:34.137Z,51.82
2022-08-31T19:12:38.674Z,52.05
2022-08-31T19:17:45.587Z,52.63
2022-08-31T19:22:48.553Z,53.09
2022-08-31T19:27:52.436Z,53.05
2022-08-31T19:32:57.430Z,53.51
2022-08-31T19:38:01.449Z,53.65
2022-08-31T19:48:33.093Z,54.24
2022-08-31T19:53:50.098Z,54.36
2022-08-31T19:58:56.587Z,54.51
2022-08-31T20:04:02.492Z,54.85
2022-08-31T20:09:07.116Z,54.96
2022-08-31T20:14:10.845Z,55.28
2022-08-31T20:19:20.857Z,55.41
2022-08-31T20:24:27.306Z,55.38
2022-08-31T20:29:32.537Z,55.40
2022-08-31T20:34:38.365Z,55.70
2022-08-31T20:39:42.254Z,55.90
2022-08-31T20:44:48.831Z,56.09
2022-08-31T20:50:00.961Z,56.12
2022-08-31T20:55:07.055Z,56.03
2022-08-31T21:00:10.756Z,56.52
2022-08-31T21:05:37.124Z,56.41
2022-08-31T21:10:40.341Z,56.76
2022-08-31T21:15:46.255Z,56.89
2022-08-31T21:20:51.653Z,57.09
2022-08-31T21:25:55.280Z,57.33
2022-08-31T21:31:18.649Z,57.32
2022-08-31T21:36:33.780Z,57.65
2022-08-31T21:41:38.050Z,57.34
2022-08-31T21:46:41.669Z,57.37
2022-08-31T21:51:52.971Z,57.05
2022-08-31T21:57:00.716Z,57.29
2022-08-31T22:02:09.397Z,57.34
2022-08-31T22:07:14.459Z,57.49
2022-08-31T22:12:18.346Z,57.18
2022-08-31T22:17:29.395Z,57.35
2022-08-31T22:22:40.057Z,57.67
2022-08-31T22:27:43.258Z,57.69
2022-08-31T22:32:48.064Z,57.76
2022-08-31T22:37:50.958Z,57.57
2022-08-31T22:42:54.886Z,58.13
2022-08-31T22:47:57.743Z,58.28
2022-08-31T22:53:00.925Z,58.10
2022-08-31T22:58:05.061Z,58.27
2022-08-31T23:03:08.238Z,58.19
2022-08-31T23:08:11.943Z,58.20
2022-08-31T23:13:14.855Z,58.29
2022-08-31T23:18:20.391Z,58.07
2022-08-31T23:23:24.593Z,58.33
2022-08-31T23:28:28.843Z,58.23
2022-08-31T23:33:31.688Z,58.03
2022-08-31T23:38:35.006Z,58.63
2022-08-31T23:43:38.476Z,58.75
2022-08-31T23:48:41.472Z,58.84
2022-08-31T23:53:55.199Z,58.96
2022-08-31T23:59:01.847Z,58.97
